sensor_id;sensor_type;location;lat;lon;timestamp;P1;durP1;ratioP1;P2;durP2;ratioP2
72413;SDS011;60995;52.154;4.498;2022-09-09T00:01:33;13.43;;;6.83;;
72413;SDS011;60995;52.154;4.498;2022-09-09T00:10:00;15.55;;;7.28;;
72413;SDS011;60995;52.154;4.498;2022-09-09T00:15:48;18.40;;;8.13;;
72413;SDS011;60995;52.154;4.498;2022-09-09T00:18:11;13.60;;;7.78;;
72413;SDS011;60995;52.154;4.498;2022-09-09T00:20:51;16.52;;;8.38;;
72413;SDS011;60995;52.154;4.498;2022-09-09T00:23:24;16.05;;;7.80;;
72413;SDS011;60995;52.154;4.498;2022-09-09T00:26:02;16.77;;;8.27;;
72413;SDS011;60995;52.154;4.498;2022-09-09T00:28:29;15.77;;;8.52;;
72413;SDS011;60995;52.154;4.498;2022-09-09T00:30:51;17.48;;;9.18;;
72413;SDS011;60995;52.154;4.498;2022-09-09T00:33:12;20.70;;;9.48;;
72413;SDS011;60995;52.154;4.498;2022-09-09T00:35:34;18.17;;;8.77;;
72413;SDS011;60995;52.154;4.498;2022-09-09T00:38:08;19.95;;;9.38;;
72413;SDS011;60995;52.154;4.498;2022-09-09T00:40:34;19.58;;;9.90;;
72413;SDS011;60995;52.154;4.498;2022-09-09T00:45:57;14.43;;;9.27;;
72413;SDS011;60995;52.154;4.498;2022-09-09T00:48:56;18.88;;;11.20;;
72413;SDS011;60995;52.154;4.498;2022-09-09T00:57:58;25.50;;;12.25;;
72413;SDS011;60995;52.154;4.498;2022-09-09T01:00:25;22.88;;;11.73;;
72413;SDS011;60995;52.154;4.498;2022-09-09T01:09:04;21.20;;;12.10;;
72413;SDS011;60995;52.154;4.498;2022-09-09T01:11:33;23.37;;;11.90;;
72413;SDS011;60995;52.154;4.498;2022-09-09T01:16:56;23.40;;;12.77;;
72413;SDS011;60995;52.154;4.498;2022-09-09T01:19:27;27.35;;;13.48;;
72413;SDS011;60995;52.154;4.498;2022-09-09T01:22:21;27.83;;;14.25;;
72413;SDS011;60995;52.154;4.498;2022-09-09T01:28:07;25.67;;;14.05;;
72413;SDS011;60995;52.154;4.498;2022-09-09T01:30:41;30.55;;;16.33;;
72413;SDS011;60995;52.154;4.498;2022-09-09T01:33:28;30.88;;;16.38;;
72413;SDS011;60995;52.154;4.498;2022-09-09T01:36:08;25.92;;;15.23;;
72413;SDS011;60995;52.154;4.498;2022-09-09T01:38:28;30.40;;;16.58;;
72413;SDS011;60995;52.154;4.498;2022-09-09T01:40:47;28.00;;;16.30;;
72413;SDS011;60995;52.154;4.498;2022-09-09T01:43:10;29.83;;;17.83;;
72413;SDS011;60995;52.154;4.498;2022-09-09T01:45:26;32.22;;;16.75;;
72413;SDS011;60995;52.154;4.498;2022-09-09T01:47:44;28.38;;;17.15;;
72413;SDS011;60995;52.154;4.498;2022-09-09T01:50:02;36.40;;;18.52;;
72413;SDS011;60995;52.154;4.498;2022-09-09T01:52:19;32.80;;;18.80;;
72413;SDS011;60995;52.154;4.498;2022-09-09T01:54:38;30.85;;;18.92;;
72413;SDS011;60995;52.154;4.498;2022-09-09T02:00:07;33.53;;;20.02;;
72413;SDS011;60995;52.154;4.498;2022-09-09T02:05:38;33.60;;;21.05;;
72413;SDS011;60995;52.154;4.498;2022-09-09T02:11:06;34.17;;;21.92;;
72413;SDS011;60995;52.154;4.498;2022-09-09T02:13:36;34.17;;;22.67;;
72413;SDS011;60995;52.154;4.498;2022-09-09T02:16:00;32.22;;;21.23;;
72413;SDS011;60995;52.154;4.498;2022-09-09T02:18:40;35.45;;;23.25;;
72413;SDS011;60995;52.154;4.498;2022-09-09T02:21:07;34.92;;;22.08;;
72413;SDS011;60995;52.154;4.498;2022-09-09T02:23:30;32.70;;;21.55;;
72413;SDS011;60995;52.154;4.498;2022-09-09T02:25:49;35.28;;;21.25;;
72413;SDS011;60995;52.154;4.498;2022-09-09T02:28:10;30.67;;;19.67;;
72413;SDS011;60995;52.154;4.498;2022-09-09T02:30:32;35.05;;;21.52;;
72413;SDS011;60995;52.154;4.498;2022-09-09T02:32:53;34.25;;;21.33;;
72413;SDS011;60995;52.154;4.498;2022-09-09T02:35:15;29.73;;;19.15;;
72413;SDS011;60995;52.154;4.498;2022-09-09T02:37:38;31.27;;;19.88;;
72413;SDS011;60995;52.154;4.498;2022-09-09T02:39:59;34.47;;;19.95;;
72413;SDS011;60995;52.154;4.498;2022-09-09T02:42:15;29.33;;;18.23;;
72413;SDS011;60995;52.154;4.498;2022-09-09T02:44:31;30.13;;;17.90;;
72413;SDS011;60995;52.154;4.498;2022-09-09T02:55:37;26.00;;;15.88;;
72413;SDS011;60995;52.154;4.498;2022-09-09T02:57:58;28.83;;;14.30;;
72413;SDS011;60995;52.154;4.498;2022-09-09T03:00:22;29.02;;;15.05;;
72413;SDS011;60995;52.154;4.498;2022-09-09T03:02:43;24.75;;;12.90;;
72413;SDS011;60995;52.154;4.498;2022-09-09T03:05:01;25.30;;;13.25;;
72413;SDS011;60995;52.154;4.498;2022-09-09T03:07:18;22.15;;;13.05;;
72413;SDS011;60995;52.154;4.498;2022-09-09T03:09:35;23.17;;;12.32;;
72413;SDS011;60995;52.154;4.498;2022-09-09T03:11:51;21.75;;;11.70;;
72413;SDS011;60995;52.154;4.498;2022-09-09T03:14:08;22.15;;;12.18;;
72413;SDS011;60995;52.154;4.498;2022-09-09T03:16:26;22.23;;;12.30;;
72413;SDS011;60995;52.154;4.498;2022-09-09T03:18:43;20.00;;;10.75;;
72413;SDS011;60995;52.154;4.498;2022-09-09T03:21:00;22.98;;;11.38;;
72413;SDS011;60995;52.154;4.498;2022-09-09T03:23:17;19.40;;;10.07;;
72413;SDS011;60995;52.154;4.498;2022-09-09T03:25:33;21.15;;;10.45;;
72413;SDS011;60995;52.154;4.498;2022-09-09T03:27:51;18.73;;;10.10;;
72413;SDS011;60995;52.154;4.498;2022-09-09T03:30:10;21.05;;;9.75;;
72413;SDS011;60995;52.154;4.498;2022-09-09T03:32:27;18.60;;;9.25;;
72413;SDS011;60995;52.154;4.498;2022-09-09T03:34:43;19.00;;;9.75;;
72413;SDS011;60995;52.154;4.498;2022-09-09T03:37:00;17.25;;;9.10;;
72413;SDS011;60995;52.154;4.498;2022-09-09T03:39:16;22.70;;;9.30;;
72413;SDS011;60995;52.154;4.498;2022-09-09T03:41:33;21.85;;;9.20;;
72413;SDS011;60995;52.154;4.498;2022-09-09T03:43:50;20.33;;;8.93;;
72413;SDS011;60995;52.154;4.498;2022-09-09T03:46:09;19.20;;;8.60;;
72413;SDS011;60995;52.154;4.498;2022-09-09T03:48:26;22.20;;;8.32;;
72413;SDS011;60995;52.154;4.498;2022-09-09T03:50:44;18.80;;;8.35;;
72413;SDS011;60995;52.154;4.498;2022-09-09T03:53:06;18.83;;;8.70;;
72413;SDS011;60995;52.154;4.498;2022-09-09T03:55:22;16.77;;;8.65;;
72413;SDS011;60995;52.154;4.498;2022-09-09T03:57:38;19.60;;;8.80;;
72413;SDS011;60995;52.154;4.498;2022-09-09T03:59:55;16.75;;;8.65;;
72413;SDS011;60995;52.154;4.498;2022-09-09T04:02:11;17.67;;;10.23;;
72413;SDS011;60995;52.154;4.498;2022-09-09T04:04:27;20.17;;;9.75;;
72413;SDS011;60995;52.154;4.498;2022-09-09T04:06:44;23.73;;;9.88;;
72413;SDS011;60995;52.154;4.498;2022-09-09T04:09:00;20.30;;;9.43;;
72413;SDS011;60995;52.154;4.498;2022-09-09T04:11:18;17.77;;;9.57;;
72413;SDS011;60995;52.154;4.498;2022-09-09T04:13:36;18.27;;;9.23;;
72413;SDS011;60995;52.154;4.498;2022-09-09T04:15:55;22.77;;;9.43;;
72413;SDS011;60995;52.154;4.498;2022-09-09T04:18:15;22.33;;;10.48;;
72413;SDS011;60995;52.154;4.498;2022-09-09T04:20:31;21.60;;;10.00;;
72413;SDS011;60995;52.154;4.498;2022-09-09T04:22:48;17.63;;;9.43;;
72413;SDS011;60995;52.154;4.498;2022-09-09T04:25:05;20.65;;;9.20;;
72413;SDS011;60995;52.154;4.498;2022-09-09T04:27:22;19.58;;;10.30;;
72413;SDS011;60995;52.154;4.498;2022-09-09T04:29:38;19.10;;;9.27;;
72413;SDS011;60995;52.154;4.498;2022-09-09T04:31:55;18.52;;;9.27;;
72413;SDS011;60995;52.154;4.498;2022-09-09T04:34:12;16.98;;;8.30;;
72413;SDS011;60995;52.154;4.498;2022-09-09T04:36:28;18.48;;;8.85;;
72413;SDS011;60995;52.154;4.498;2022-09-09T04:38:45;14.98;;;7.72;;
72413;SDS011;60995;52.154;4.498;2022-09-09T04:41:03;16.95;;;7.88;;
72413;SDS011;60995;52.154;4.498;2022-09-09T04:43:20;17.63;;;8.38;;
72413;SDS011;60995;52.154;4.498;2022-09-09T04:45:37;18.30;;;8.20;;
72413;SDS011;60995;52.154;4.498;2022-09-09T04:47:56;15.23;;;7.63;;
72413;SDS011;60995;52.154;4.498;2022-09-09T04:50:13;17.27;;;8.02;;
72413;SDS011;60995;52.154;4.498;2022-09-09T04:52:29;15.82;;;7.13;;
72413;SDS011;60995;52.154;4.498;2022-09-09T04:54:45;18.75;;;7.45;;
72413;SDS011;60995;52.154;4.498;2022-09-09T04:57:02;17.08;;;7.78;;
72413;SDS011;60995;52.154;4.498;2022-09-09T04:59:19;18.63;;;7.32;;
72413;SDS011;60995;52.154;4.498;2022-09-09T05:01:35;22.40;;;7.60;;
72413;SDS011;60995;52.154;4.498;2022-09-09T05:03:52;16.48;;;6.72;;
72413;SDS011;60995;52.154;4.498;2022-09-09T05:06:10;15.80;;;7.00;;
72413;SDS011;60995;52.154;4.498;2022-09-09T05:08:29;16.42;;;6.00;;
72413;SDS011;60995;52.154;4.498;2022-09-09T05:10:45;16.20;;;6.65;;
72413;SDS011;60995;52.154;4.498;2022-09-09T05:13:01;16.70;;;6.45;;
72413;SDS011;60995;52.154;4.498;2022-09-09T05:15:18;17.02;;;6.15;;
72413;SDS011;60995;52.154;4.498;2022-09-09T05:17:36;17.45;;;6.28;;
72413;SDS011;60995;52.154;4.498;2022-09-09T05:19:52;11.90;;;5.68;;
72413;SDS011;60995;52.154;4.498;2022-09-09T05:22:09;16.75;;;5.47;;
72413;SDS011;60995;52.154;4.498;2022-09-09T05:24:27;15.25;;;5.70;;
72413;SDS011;60995;52.154;4.498;2022-09-09T05:26:44;14.30;;;5.32;;
72413;SDS011;60995;52.154;4.498;2022-09-09T05:29:00;17.95;;;5.13;;
72413;SDS011;60995;52.154;4.498;2022-09-09T05:31:17;16.85;;;5.43;;
72413;SDS011;60995;52.154;4.498;2022-09-09T05:33:35;15.32;;;4.75;;
72413;SDS011;60995;52.154;4.498;2022-09-09T05:35:56;13.80;;;5.22;;
72413;SDS011;60995;52.154;4.498;2022-09-09T05:38:18;17.85;;;5.28;;
72413;SDS011;60995;52.154;4.498;2022-09-09T05:40:35;11.43;;;4.72;;
72413;SDS011;60995;52.154;4.498;2022-09-09T05:42:52;16.00;;;4.93;;
72413;SDS011;60995;52.154;4.498;2022-09-09T05:45:09;15.32;;;5.20;;
72413;SDS011;60995;52.154;4.498;2022-09-09T05:47:26;13.90;;;4.88;;
72413;SDS011;60995;52.154;4.498;2022-09-09T05:49:43;14.70;;;4.68;;
72413;SDS011;60995;52.154;4.498;2022-09-09T05:51:59;14.07;;;4.60;;
72413;SDS011;60995;52.154;4.498;2022-09-09T05:54:16;11.95;;;4.57;;
72413;SDS011;60995;52.154;4.498;2022-09-09T05:56:32;12.93;;;4.20;;
72413;SDS011;60995;52.154;4.498;2022-09-09T05:58:49;13.63;;;4.70;;
72413;SDS011;60995;52.154;4.498;2022-09-09T06:01:09;14.60;;;4.72;;
72413;SDS011;60995;52.154;4.498;2022-09-09T06:03:39;12.02;;;4.82;;
72413;SDS011;60995;52.154;4.498;2022-09-09T06:06:01;13.52;;;4.95;;
72413;SDS011;60995;52.154;4.498;2022-09-09T06:08:21;13.07;;;4.78;;
72413;SDS011;60995;52.154;4.498;2022-09-09T06:10:37;12.85;;;4.60;;
72413;SDS011;60995;52.154;4.498;2022-09-09T06:12:53;14.30;;;4.22;;
72413;SDS011;60995;52.154;4.498;2022-09-09T06:15:10;15.13;;;3.85;;
72413;SDS011;60995;52.154;4.498;2022-09-09T06:17:26;19.63;;;3.53;;
72413;SDS011;60995;52.154;4.498;2022-09-09T06:19:42;16.27;;;3.85;;
72413;SDS011;60995;52.154;4.498;2022-09-09T06:21:58;14.05;;;3.75;;
72413;SDS011;60995;52.154;4.498;2022-09-09T06:24:15;19.65;;;3.80;;
72413;SDS011;60995;52.154;4.498;2022-09-09T06:26:39;13.43;;;3.60;;
72413;SDS011;60995;52.154;4.498;2022-09-09T06:28:57;17.23;;;3.65;;
72413;SDS011;60995;52.154;4.498;2022-09-09T06:31:15;12.05;;;3.00;;
72413;SDS011;60995;52.154;4.498;2022-09-09T06:33:38;15.05;;;3.47;;
72413;SDS011;60995;52.154;4.498;2022-09-09T06:36:00;13.63;;;3.55;;
72413;SDS011;60995;52.154;4.498;2022-09-09T06:38:19;12.20;;;3.35;;
72413;SDS011;60995;52.154;4.498;2022-09-09T06:40:37;18.40;;;4.03;;
72413;SDS011;60995;52.154;4.498;2022-09-09T06:42:53;12.57;;;3.47;;
72413;SDS011;60995;52.154;4.498;2022-09-09T06:45:09;18.60;;;4.03;;
72413;SDS011;60995;52.154;4.498;2022-09-09T06:47:27;15.82;;;3.63;;
72413;SDS011;60995;52.154;4.498;2022-09-09T06:49:44;19.10;;;4.68;;
72413;SDS011;60995;52.154;4.498;2022-09-09T06:52:00;15.18;;;4.30;;
72413;SDS011;60995;52.154;4.498;2022-09-09T06:54:17;15.35;;;4.55;;
72413;SDS011;60995;52.154;4.498;2022-09-09T06:56:36;14.52;;;4.00;;
72413;SDS011;60995;52.154;4.498;2022-09-09T06:58:59;14.68;;;3.92;;
72413;SDS011;60995;52.154;4.498;2022-09-09T07:01:20;14.82;;;4.00;;
72413;SDS011;60995;52.154;4.498;2022-09-09T07:03:44;16.75;;;3.50;;
72413;SDS011;60995;52.154;4.498;2022-09-09T07:06:06;15.40;;;4.28;;
72413;SDS011;60995;52.154;4.498;2022-09-09T07:08:30;14.50;;;4.75;;
72413;SDS011;60995;52.154;4.498;2022-09-09T07:10:47;11.23;;;3.95;;
72413;SDS011;60995;52.154;4.498;2022-09-09T07:13:03;16.10;;;4.82;;
72413;SDS011;60995;52.154;4.498;2022-09-09T07:15:20;18.90;;;5.50;;
72413;SDS011;60995;52.154;4.498;2022-09-09T07:17:38;20.50;;;5.45;;
72413;SDS011;60995;52.154;4.498;2022-09-09T07:19:54;15.32;;;4.20;;
72413;SDS011;60995;52.154;4.498;2022-09-09T07:22:12;20.35;;;4.38;;
72413;SDS011;60995;52.154;4.498;2022-09-09T07:24:29;16.48;;;4.50;;
72413;SDS011;60995;52.154;4.498;2022-09-09T07:26:46;13.98;;;4.68;;
72413;SDS011;60995;52.154;4.498;2022-09-09T07:29:02;13.50;;;4.22;;
72413;SDS011;60995;52.154;4.498;2022-09-09T07:31:21;10.98;;;3.83;;
72413;SDS011;60995;52.154;4.498;2022-09-09T07:33:50;14.45;;;4.22;;
72413;SDS011;60995;52.154;4.498;2022-09-09T07:36:14;14.93;;;4.20;;
72413;SDS011;60995;52.154;4.498;2022-09-09T07:38:40;17.85;;;4.10;;
72413;SDS011;60995;52.154;4.498;2022-09-09T07:41:04;13.20;;;4.50;;
72413;SDS011;60995;52.154;4.498;2022-09-09T07:43:25;13.98;;;4.20;;
72413;SDS011;60995;52.154;4.498;2022-09-09T07:45:42;14.18;;;4.20;;
72413;SDS011;60995;52.154;4.498;2022-09-09T07:47:58;14.73;;;4.30;;
72413;SDS011;60995;52.154;4.498;2022-09-09T07:50:15;15.52;;;4.07;;
72413;SDS011;60995;52.154;4.498;2022-09-09T07:52:33;18.05;;;5.50;;
72413;SDS011;60995;52.154;4.498;2022-09-09T07:54:49;18.58;;;5.35;;
72413;SDS011;60995;52.154;4.498;2022-09-09T07:57:06;17.38;;;5.10;;
72413;SDS011;60995;52.154;4.498;2022-09-09T07:59:22;17.17;;;4.80;;
72413;SDS011;60995;52.154;4.498;2022-09-09T08:01:42;12.57;;;4.07;;
72413;SDS011;60995;52.154;4.498;2022-09-09T08:04:10;15.52;;;4.32;;
72413;SDS011;60995;52.154;4.498;2022-09-09T08:06:34;14.15;;;4.57;;
72413;SDS011;60995;52.154;4.498;2022-09-09T08:08:56;15.02;;;4.30;;
72413;SDS011;60995;52.154;4.498;2022-09-09T08:11:14;14.75;;;4.40;;
72413;SDS011;60995;52.154;4.498;2022-09-09T08:13:31;14.55;;;4.63;;
72413;SDS011;60995;52.154;4.498;2022-09-09T08:15:49;18.83;;;5.00;;
72413;SDS011;60995;52.154;4.498;2022-09-09T08:18:05;14.35;;;4.97;;
72413;SDS011;60995;52.154;4.498;2022-09-09T08:20:22;11.10;;;4.07;;
72413;SDS011;60995;52.154;4.498;2022-09-09T08:22:39;13.93;;;4.28;;
72413;SDS011;60995;52.154;4.498;2022-09-09T08:24:55;14.27;;;4.15;;
72413;SDS011;60995;52.154;4.498;2022-09-09T08:27:12;12.52;;;3.90;;
72413;SDS011;60995;52.154;4.498;2022-09-09T08:29:28;14.27;;;3.83;;
72413;SDS011;60995;52.154;4.498;2022-09-09T08:31:47;12.18;;;3.85;;
72413;SDS011;60995;52.154;4.498;2022-09-09T08:34:07;11.73;;;4.03;;
72413;SDS011;60995;52.154;4.498;2022-09-09T08:36:25;17.75;;;3.88;;
72413;SDS011;60995;52.154;4.498;2022-09-09T08:38:51;18.70;;;4.07;;
72413;SDS011;60995;52.154;4.498;2022-09-09T08:44:14;15.60;;;3.75;;
72413;SDS011;60995;52.154;4.498;2022-09-09T08:49:54;12.45;;;4.20;;
72413;SDS011;60995;52.154;4.498;2022-09-09T08:52:08;11.95;;;3.65;;
72413;SDS011;60995;52.154;4.498;2022-09-09T08:54:34;11.45;;;3.70;;
72413;SDS011;60995;52.154;4.498;2022-09-09T08:56:52;13.20;;;3.78;;
72413;SDS011;60995;52.154;4.498;2022-09-09T08:59:08;16.17;;;3.92;;
72413;SDS011;60995;52.154;4.498;2022-09-09T09:12:45;11.47;;;4.17;;
72413;SDS011;60995;52.154;4.498;2022-09-09T09:15:05;12.30;;;3.78;;
72413;SDS011;60995;52.154;4.498;2022-09-09T09:17:35;12.27;;;3.50;;
72413;SDS011;60995;52.154;4.498;2022-09-09T09:19:54;12.73;;;3.72;;
72413;SDS011;60995;52.154;4.498;2022-09-09T09:25:03;19.10;;;4.88;;
72413;SDS011;60995;52.154;4.498;2022-09-09T09:30:01;23.48;;;7.10;;
72413;SDS011;60995;52.154;4.498;2022-09-09T09:32:34;16.60;;;7.10;;
72413;SDS011;60995;52.154;4.498;2022-09-09T09:34:55;14.60;;;6.50;;
72413;SDS011;60995;52.154;4.498;2022-09-09T09:37:17;17.58;;;7.22;;
72413;SDS011;60995;52.154;4.498;2022-09-09T09:39:44;18.50;;;7.88;;
72413;SDS011;60995;52.154;4.498;2022-09-09T09:42:35;12.43;;;5.35;;
72413;SDS011;60995;52.154;4.498;2022-09-09T09:44:44;20.57;;;6.70;;
72413;SDS011;60995;52.154;4.498;2022-09-09T09:49:35;18.42;;;7.05;;
72413;SDS011;60995;52.154;4.498;2022-09-09T09:51:52;18.88;;;6.93;;
72413;SDS011;60995;52.154;4.498;2022-09-09T09:56:53;14.45;;;5.75;;
72413;SDS011;60995;52.154;4.498;2022-09-09T09:59:20;19.35;;;6.65;;
72413;SDS011;60995;52.154;4.498;2022-09-09T10:01:43;16.23;;;5.57;;
72413;SDS011;60995;52.154;4.498;2022-09-09T10:04:00;15.15;;;5.22;;
72413;SDS011;60995;52.154;4.498;2022-09-09T10:06:37;19.27;;;6.15;;
72413;SDS011;60995;52.154;4.498;2022-09-09T10:08:55;15.27;;;5.90;;
72413;SDS011;60995;52.154;4.498;2022-09-09T10:19:15;19.25;;;6.15;;
72413;SDS011;60995;52.154;4.498;2022-09-09T10:27:24;16.77;;;6.75;;
72413;SDS011;60995;52.154;4.498;2022-09-09T10:32:52;14.60;;;7.13;;
72413;SDS011;60995;52.154;4.498;2022-09-09T10:35:24;13.77;;;6.22;;
72413;SDS011;60995;52.154;4.498;2022-09-09T10:38:03;15.05;;;6.55;;
72413;SDS011;60995;52.154;4.498;2022-09-09T10:40:33;15.75;;;6.57;;
72413;SDS011;60995;52.154;4.498;2022-09-09T10:43:04;16.13;;;6.05;;
72413;SDS011;60995;52.154;4.498;2022-09-09T10:46:02;15.82;;;6.03;;
72413;SDS011;60995;52.154;4.498;2022-09-09T10:54:36;16.88;;;5.53;;
72413;SDS011;60995;52.154;4.498;2022-09-09T10:57:12;19.60;;;6.85;;
72413;SDS011;60995;52.154;4.498;2022-09-09T10:59:50;15.38;;;5.78;;
72413;SDS011;60995;52.154;4.498;2022-09-09T11:02:28;11.70;;;4.43;;
72413;SDS011;60995;52.154;4.498;2022-09-09T11:04:53;10.52;;;3.95;;
72413;SDS011;60995;52.154;4.498;2022-09-09T11:07:13;11.10;;;3.90;;
72413;SDS011;60995;52.154;4.498;2022-09-09T11:09:50;11.25;;;3.67;;
72413;SDS011;60995;52.154;4.498;2022-09-09T11:14:45;11.02;;;3.47;;
72413;SDS011;60995;52.154;4.498;2022-09-09T11:17:12;10.38;;;3.17;;
72413;SDS011;60995;52.154;4.498;2022-09-09T11:19:49;10.02;;;3.00;;
72413;SDS011;60995;52.154;4.498;2022-09-09T11:22:18;11.20;;;2.72;;
72413;SDS011;60995;52.154;4.498;2022-09-09T11:30:14;7.50;;;2.40;;
72413;SDS011;60995;52.154;4.498;2022-09-09T11:35:27;9.23;;;2.78;;
72413;SDS011;60995;52.154;4.498;2022-09-09T11:38:20;11.88;;;2.92;;
72413;SDS011;60995;52.154;4.498;2022-09-09T11:41:05;9.07;;;2.72;;
72413;SDS011;60995;52.154;4.498;2022-09-09T11:43:27;7.18;;;3.00;;
72413;SDS011;60995;52.154;4.498;2022-09-09T11:45:55;8.25;;;3.33;;
72413;SDS011;60995;52.154;4.498;2022-09-09T11:48:26;12.40;;;3.88;;
72413;SDS011;60995;52.154;4.498;2022-09-09T11:50:56;15.75;;;5.03;;
72413;SDS011;60995;52.154;4.498;2022-09-09T11:53:19;12.27;;;5.13;;
72413;SDS011;60995;52.154;4.498;2022-09-09T11:55:38;13.18;;;5.50;;
72413;SDS011;60995;52.154;4.498;2022-09-09T12:03:00;18.65;;;7.75;;
72413;SDS011;60995;52.154;4.498;2022-09-09T12:05:17;17.75;;;6.93;;
72413;SDS011;60995;52.154;4.498;2022-09-09T12:07:37;17.13;;;7.55;;
72413;SDS011;60995;52.154;4.498;2022-09-09T12:10:19;14.65;;;7.30;;
72413;SDS011;60995;52.154;4.498;2022-09-09T12:12:42;18.13;;;7.03;;
72413;SDS011;60995;52.154;4.498;2022-09-09T12:17:24;16.30;;;6.13;;
72413;SDS011;60995;52.154;4.498;2022-09-09T12:19:43;15.70;;;4.35;;
72413;SDS011;60995;52.154;4.498;2022-09-09T12:24:53;8.02;;;2.90;;
72413;SDS011;60995;52.154;4.498;2022-09-09T12:30:55;8.63;;;3.17;;
72413;SDS011;60995;52.154;4.498;2022-09-09T12:34:02;9.52;;;3.20;;
72413;SDS011;60995;52.154;4.498;2022-09-09T12:36:55;11.35;;;2.88;;
72413;SDS011;60995;52.154;4.498;2022-09-09T12:41:51;12.23;;;3.78;;
72413;SDS011;60995;52.154;4.498;2022-09-09T12:44:13;13.45;;;4.45;;
72413;SDS011;60995;52.154;4.498;2022-09-09T12:46:33;15.77;;;4.45;;
72413;SDS011;60995;52.154;4.498;2022-09-09T12:48:56;10.07;;;4.30;;
72413;SDS011;60995;52.154;4.498;2022-09-09T12:51:21;8.50;;;3.55;;
72413;SDS011;60995;52.154;4.498;2022-09-09T12:53:53;10.70;;;4.15;;
72413;SDS011;60995;52.154;4.498;2022-09-09T12:56:18;10.38;;;3.72;;
72413;SDS011;60995;52.154;4.498;2022-09-09T12:58:38;10.18;;;3.30;;
72413;SDS011;60995;52.154;4.498;2022-09-09T13:00:56;8.50;;;3.45;;
72413;SDS011;60995;52.154;4.498;2022-09-09T13:03:17;5.70;;;2.85;;
72413;SDS011;60995;52.154;4.498;2022-09-09T13:05:39;8.30;;;2.67;;
72413;SDS011;60995;52.154;4.498;2022-09-09T13:08:16;11.07;;;2.88;;
72413;SDS011;60995;52.154;4.498;2022-09-09T13:10:41;9.75;;;2.90;;
72413;SDS011;60995;52.154;4.498;2022-09-09T13:13:36;9.05;;;3.08;;
72413;SDS011;60995;52.154;4.498;2022-09-09T13:15:56;7.13;;;3.38;;
72413;SDS011;60995;52.154;4.498;2022-09-09T13:18:15;6.25;;;2.63;;
72413;SDS011;60995;52.154;4.498;2022-09-09T13:20:35;7.50;;;2.65;;
72413;SDS011;60995;52.154;4.498;2022-09-09T13:22:53;9.57;;;3.25;;
72413;SDS011;60995;52.154;4.498;2022-09-09T13:28:43;6.47;;;3.10;;
72413;SDS011;60995;52.154;4.498;2022-09-09T13:31:05;7.43;;;3.25;;
72413;SDS011;60995;52.154;4.498;2022-09-09T13:33:44;7.28;;;3.00;;
72413;SDS011;60995;52.154;4.498;2022-09-09T13:36:09;8.30;;;2.88;;
72413;SDS011;60995;52.154;4.498;2022-09-09T13:38:29;10.02;;;3.47;;
72413;SDS011;60995;52.154;4.498;2022-09-09T13:40:57;9.48;;;3.10;;
72413;SDS011;60995;52.154;4.498;2022-09-09T13:43:21;7.07;;;3.25;;
72413;SDS011;60995;52.154;4.498;2022-09-09T13:45:40;8.85;;;3.50;;
72413;SDS011;60995;52.154;4.498;2022-09-09T13:47:56;9.68;;;3.35;;
72413;SDS011;60995;52.154;4.498;2022-09-09T13:50:20;12.38;;;3.30;;
72413;SDS011;60995;52.154;4.498;2022-09-09T13:52:37;8.45;;;3.13;;
72413;SDS011;60995;52.154;4.498;2022-09-09T13:54:55;8.18;;;2.60;;
72413;SDS011;60995;52.154;4.498;2022-09-09T13:57:14;9.25;;;3.30;;
72413;SDS011;60995;52.154;4.498;2022-09-09T13:59:33;6.82;;;2.10;;
72413;SDS011;60995;52.154;4.498;2022-09-09T14:01:50;8.18;;;2.20;;
72413;SDS011;60995;52.154;4.498;2022-09-09T14:04:09;8.20;;;2.10;;
72413;SDS011;60995;52.154;4.498;2022-09-09T14:06:26;5.97;;;1.70;;
72413;SDS011;60995;52.154;4.498;2022-09-09T14:08:43;6.50;;;1.40;;
72413;SDS011;60995;52.154;4.498;2022-09-09T14:11:01;5.68;;;1.30;;
72413;SDS011;60995;52.154;4.498;2022-09-09T14:13:18;5.07;;;1.23;;
72413;SDS011;60995;52.154;4.498;2022-09-09T14:15:34;6.30;;;1.10;;
72413;SDS011;60995;52.154;4.498;2022-09-09T14:17:51;4.30;;;1.10;;
72413;SDS011;60995;52.154;4.498;2022-09-09T14:20:08;4.55;;;1.05;;
72413;SDS011;60995;52.154;4.498;2022-09-09T14:22:27;5.30;;;1.08;;
72413;SDS011;60995;52.154;4.498;2022-09-09T14:24:44;6.78;;;1.50;;
72413;SDS011;60995;52.154;4.498;2022-09-09T14:27:00;5.15;;;1.65;;
72413;SDS011;60995;52.154;4.498;2022-09-09T14:29:16;8.55;;;1.65;;
72413;SDS011;60995;52.154;4.498;2022-09-09T14:31:32;26.95;;;2.60;;
72413;SDS011;60995;52.154;4.498;2022-09-09T14:33:49;11.52;;;1.92;;
72413;SDS011;60995;52.154;4.498;2022-09-09T14:36:06;18.55;;;2.80;;
72413;SDS011;60995;52.154;4.498;2022-09-09T14:38:23;7.35;;;1.88;;
72413;SDS011;60995;52.154;4.498;2022-09-09T14:40:39;8.00;;;2.30;;
72413;SDS011;60995;52.154;4.498;2022-09-09T14:42:56;7.30;;;1.70;;
72413;SDS011;60995;52.154;4.498;2022-09-09T14:45:13;8.60;;;2.22;;
72413;SDS011;60995;52.154;4.498;2022-09-09T14:47:29;7.65;;;2.13;;
72413;SDS011;60995;52.154;4.498;2022-09-09T14:49:46;9.15;;;3.05;;
72413;SDS011;60995;52.154;4.498;2022-09-09T14:52:05;9.70;;;2.33;;
72413;SDS011;60995;52.154;4.498;2022-09-09T14:54:22;12.15;;;2.78;;
72413;SDS011;60995;52.154;4.498;2022-09-09T14:56:38;12.63;;;3.45;;
72413;SDS011;60995;52.154;4.498;2022-09-09T14:58:55;8.82;;;1.98;;
72413;SDS011;60995;52.154;4.498;2022-09-09T15:01:15;8.25;;;1.95;;
72413;SDS011;60995;52.154;4.498;2022-09-09T15:03:34;9.05;;;2.50;;
72413;SDS011;60995;52.154;4.498;2022-09-09T15:05:50;9.68;;;2.30;;
72413;SDS011;60995;52.154;4.498;2022-09-09T15:08:07;9.48;;;2.55;;
72413;SDS011;60995;52.154;4.498;2022-09-09T15:10:23;13.40;;;2.67;;
72413;SDS011;60995;52.154;4.498;2022-09-09T15:12:39;11.07;;;2.42;;
72413;SDS011;60995;52.154;4.498;2022-09-09T15:14:57;10.27;;;2.63;;
72413;SDS011;60995;52.154;4.498;2022-09-09T15:17:13;10.88;;;2.60;;
72413;SDS011;60995;52.154;4.498;2022-09-09T15:19:30;8.18;;;2.33;;
72413;SDS011;60995;52.154;4.498;2022-09-09T15:21:48;11.75;;;2.60;;
72413;SDS011;60995;52.154;4.498;2022-09-09T15:24:05;10.23;;;2.55;;
72413;SDS011;60995;52.154;4.498;2022-09-09T15:26:24;9.27;;;2.45;;
72413;SDS011;60995;52.154;4.498;2022-09-09T15:28:42;11.10;;;2.58;;
72413;SDS011;60995;52.154;4.498;2022-09-09T15:31:00;9.25;;;2.70;;
72413;SDS011;60995;52.154;4.498;2022-09-09T15:35:39;11.82;;;2.53;;
72413;SDS011;60995;52.154;4.498;2022-09-09T15:37:56;9.50;;;2.90;;
72413;SDS011;60995;52.154;4.498;2022-09-09T15:40:12;9.80;;;2.58;;
72413;SDS011;60995;52.154;4.498;2022-09-09T15:42:29;13.80;;;3.97;;
72413;SDS011;60995;52.154;4.498;2022-09-09T15:44:46;9.95;;;3.65;;
72413;SDS011;60995;52.154;4.498;2022-09-09T15:47:02;13.20;;;3.30;;
72413;SDS011;60995;52.154;4.498;2022-09-09T15:49:25;12.60;;;2.83;;
72413;SDS011;60995;52.154;4.498;2022-09-09T15:51:42;11.13;;;2.35;;
72413;SDS011;60995;52.154;4.498;2022-09-09T15:54:06;11.40;;;2.50;;
72413;SDS011;60995;52.154;4.498;2022-09-09T15:56:24;6.43;;;2.20;;
72413;SDS011;60995;52.154;4.498;2022-09-09T15:58:48;9.43;;;2.50;;
72413;SDS011;60995;52.154;4.498;2022-09-09T16:01:06;9.02;;;3.20;;
72413;SDS011;60995;52.154;4.498;2022-09-09T16:03:24;9.43;;;2.10;;
72413;SDS011;60995;52.154;4.498;2022-09-09T16:05:40;8.10;;;2.58;;
72413;SDS011;60995;52.154;4.498;2022-09-09T16:07:57;12.30;;;2.85;;
72413;SDS011;60995;52.154;4.498;2022-09-09T16:10:14;23.83;;;3.03;;
72413;SDS011;60995;52.154;4.498;2022-09-09T16:12:30;7.60;;;2.20;;
72413;SDS011;60995;52.154;4.498;2022-09-09T16:14:46;7.45;;;2.00;;